Time;durP1;ratioP1;P1;durP2;ratioP2;P2;SDS_P1;SDS_P2;PMS_P1;PMS_P2;Temp;Humidity;BMP_temperature;BMP_pressure;BME280_temperature;BME280_humidity;BME280_pressure;Samples;Min_cycle;Max_cycle;Signal;HPM_P1;HPM_P2
2023/04/17 00:01:22;;;;;;;14.67;13.10;;;;;;;10.23;95.24;99107.91;5058667;27;103001;-62
2023/04/17 00:03:53;;;;;;;14.10;12.07;;;;;;;10.31;95.71;99105.59;5054339;27;102573;-62
2023/04/17 00:06:22;;;;;;;14.83;13.33;;;;;;;10.18;95.88;99101.22;5054310;27;103370;-61
2023/04/17 00:08:50;;;;;;;14.73;12.07;;;;;;;10.26;95.43;99112.13;5052666;27;104406;-62
2023/04/17 00:11:20;;;;;;;16.03;13.40;;;;;;;10.16;95.04;99103.13;5044537;27;102669;-62
2023/04/17 00:13:50;;;;;;;15.00;13.40;;;;;;;10.16;95.40;99108.41;5044824;27;102932;-61
2023/04/17 00:16:18;;;;;;;14.07;12.33;;;;;;;10.35;95.44;99111.53;5052085;27;103317;-61
2023/04/17 00:18:46;;;;;;;14.90;12.50;;;;;;;10.41;93.19;99111.16;5054125;27;107321;-62
2023/04/17 00:21:16;;;;;;;16.93;12.33;;;;;;;10.52;93.77;99106.00;5057760;27;102786;-62
2023/04/17 00:23:44;;;;;;;16.50;13.67;;;;;;;10.39;93.89;99105.09;5055819;27;102868;-61
2023/04/17 00:26:12;;;;;;;14.20;12.70;;;;;;;10.50;93.10;99105.25;5055239;27;103228;-61
2023/04/17 00:28:42;;;;;;;13.20;11.50;;;;;;;10.66;92.70;99099.81;5055624;27;108356;-61
2023/04/17 00:31:11;;;;;;;13.87;11.97;;;;;;;10.80;91.81;99103.22;5056475;27;102600;-61
2023/04/17 00:33:41;;;;;;;12.77;11.30;;;;;;;10.69;92.34;99103.09;5057128;27;102692;-62
2023/04/17 00:36:12;;;;;;;15.60;13.30;;;;;;;10.37;92.86;99099.06;5040936;27;103321;-61
2023/04/17 00:38:42;;;;;;;15.80;12.47;;;;;;;10.54;93.03;99096.19;5058483;27;103128;-62
2023/04/17 00:41:10;;;;;;;17.83;13.63;;;;;;;10.61;91.72;99101.91;5049153;27;102765;-61
2023/04/17 00:43:39;;;;;;;15.27;13.47;;;;;;;10.10;94.25;99099.03;5056378;27;102606;-61
2023/04/17 00:46:09;;;;;;;14.50;13.00;;;;;;;10.53;93.53;99098.91;5044197;27;104734;-62
2023/04/17 00:48:39;;;;;;;16.70;13.73;;;;;;;10.52;93.21;99086.66;5055423;27;104494;-61
2023/04/17 00:51:08;;;;;;;13.80;12.37;;;;;;;10.58;93.07;99092.41;5053028;27;102680;-62
2023/04/17 00:53:37;;;;;;;17.83;14.07;;;;;;;10.43;93.05;99093.41;5037533;27;102922;-62
2023/04/17 00:56:08;;;;;;;15.03;13.43;;;;;;;10.50;92.89;99083.28;5044944;27;104583;-62
2023/04/17 00:58:37;;;;;;;14.30;12.90;;;;;;;10.67;92.44;99082.97;5041056;27;103240;-61
2023/04/17 01:01:06;;;;;;;15.63;13.90;;;;;;;10.62;91.86;99087.75;5055898;27;102555;-62
2023/04/17 01:03:35;;;;;;;13.53;12.13;;;;;;;10.42;93.05;99091.69;5056735;27;102690;-62
2023/04/17 01:06:06;;;;;;;16.07;13.43;;;;;;;10.31;94.51;99086.25;5055791;27;103238;-61
2023/04/17 01:08:42;;;;;;;13.30;11.87;;;;;;;10.47;93.88;99081.66;5056175;27;103144;-62
2023/04/17 01:11:12;;;;;;;15.27;13.23;;;;;;;10.36;93.07;99076.25;5036505;27;103885;-61
2023/04/17 01:13:45;;;;;;;14.13;12.20;;;;;;;10.39;93.14;99071.59;5038736;27;102733;-62
2023/04/17 01:16:13;;;;;;;15.00;13.40;;;;;;;10.15;94.01;99072.38;5035030;27;103314;-62
2023/04/17 01:18:42;;;;;;;14.93;12.87;;;;;;;10.12;94.45;99072.53;5035659;27;103167;-61
2023/04/17 01:21:10;;;;;;;14.40;12.90;;;;;;;10.27;93.65;99071.59;5034482;27;102877;-61
2023/04/17 01:24:09;;;;;;;12.83;10.97;;;;;;;10.25;92.67;99074.31;5054663;27;102797;-62
2023/04/17 01:26:38;;;;;;;14.47;12.93;;;;;;;10.46;92.43;99080.84;5038220;27;103171;-61
2023/04/17 01:29:07;;;;;;;12.27;10.47;;;;;;;10.48;92.41;99068.38;5052056;27;103116;-61
2023/04/17 01:31:35;;;;;;;15.03;12.63;;;;;;;10.56;91.12;99078.41;5036109;27;102939;-62
2023/04/17 01:34:03;;;;;;;12.33;10.80;;;;;;;10.67;91.27;99086.47;5055983;27;102630;-62
2023/04/17 01:36:31;;;;;;;13.70;10.73;;;;;;;10.81;90.85;99094.34;5038331;27;103840;-62
2023/04/17 01:38:59;;;;;;;12.57;11.27;;;;;;;10.74;90.52;99085.13;5054415;27;103146;-62
2023/04/17 01:41:29;;;;;;;13.00;11.63;;;;;;;10.72;90.43;99088.84;5037219;27;102770;-63
2023/04/17 01:43:57;;;;;;;15.40;13.50;;;;;;;10.69;90.55;99084.59;5047486;27;102925;-62
2023/04/17 01:46:25;;;;;;;15.00;13.07;;;;;;;10.53;90.48;99083.91;5054575;27;104491;-62
2023/04/17 01:49:00;;;;;;;13.93;12.50;;;;;;;10.50;90.79;99080.63;5023491;27;103784;-62
2023/04/17 01:51:28;;;;;;;15.47;13.37;;;;;;;10.36;91.49;99085.00;5039564;27;102781;-62
2023/04/17 01:54:01;;;;;;;16.13;13.13;;;;;;;10.53;91.54;99073.34;5046282;27;102659;-61
2023/04/17 01:56:31;;;;;;;13.53;11.97;;;;;;;10.55;91.48;99078.53;5051607;27;103495;-62
2023/04/17 01:58:59;;;;;;;12.83;11.13;;;;;;;10.53;90.93;99081.25;5066472;27;103108;-61
2023/04/17 02:01:27;;;;;;;13.90;12.40;;;;;;;10.28;91.64;99075.91;5037221;27;102816;-62
2023/04/17 02:03:55;;;;;;;13.33;11.33;;;;;;;10.57;90.99;99072.19;5054487;27;102716;-62
2023/04/17 02:06:25;;;;;;;13.57;12.17;;;;;;;10.60;90.96;99072.00;5035436;27;103142;-61
2023/04/17 02:08:54;;;;;;;15.20;12.10;;;;;;;10.72;90.71;99073.81;5050809;27;103059;-62
2023/04/17 02:11:22;;;;;;;13.20;11.83;;;;;;;10.74;90.29;99074.56;5056808;27;102950;-61
2023/04/17 02:13:52;;;;;;;15.13;12.57;;;;;;;10.80;90.23;99075.94;5057442;27;103427;-61
2023/04/17 02:16:21;;;;;;;13.50;11.33;;;;;;;10.81;89.93;99081.13;5042320;27;103282;-62
2023/04/17 02:18:50;;;;;;;11.97;10.67;;;;;;;10.85;89.86;99085.25;5061632;27;104563;-61
2023/04/17 02:21:18;;;;;;;12.23;10.93;;;;;;;10.86;89.84;99076.38;5050107;27;102763;-62
2023/04/17 02:23:48;;;;;;;16.20;13.03;;;;;;;10.83;89.70;99081.88;5043809;27;102779;-61
2023/04/17 02:26:17;;;;;;;12.83;11.53;;;;;;;10.88;90.15;99085.06;5069221;27;104319;-62
2023/04/17 02:28:45;;;;;;;12.83;11.53;;;;;;;10.84;90.06;99088.00;5040361;27;103299;-56
2023/04/17 02:31:15;;;;;;;16.57;14.50;;;;;;;10.74;90.22;99069.28;5057338;27;102636;-56
2023/04/17 02:33:46;;;;;;;13.43;11.97;;;;;;;10.85;90.41;99079.97;5032328;27;103260;-55
2023/04/17 02:36:15;;;;;;;13.33;11.93;;;;;;;10.88;90.46;99082.41;5048023;27;104757;-56
2023/04/17 02:38:44;;;;;;;12.43;11.03;;;;;;;10.93;90.33;99082.94;5032660;27;108215;-56
2023/04/17 02:41:13;;;;;;;11.87;10.53;;;;;;;10.91;90.33;99082.22;5027322;27;102962;-56
2023/04/17 02:43:41;;;;;;;13.27;11.70;;;;;;;10.93;89.98;99082.09;5033310;27;102907;-56
2023/04/17 02:46:10;;;;;;;11.53;10.07;;;;;;;10.87;90.16;99086.00;5037043;27;103530;-56
2023/04/17 02:48:40;;;;;;;13.60;12.03;;;;;;;10.89;89.82;99083.28;5054095;27;103347;-56
2023/04/17 02:51:08;;;;;;;14.27;12.27;;;;;;;10.89;89.56;99076.16;5028132;27;103066;-56
2023/04/17 02:53:38;;;;;;;13.33;11.93;;;;;;;10.94;89.19;99079.38;5040655;27;102902;-56
2023/04/17 02:56:06;;;;;;;13.07;11.73;;;;;;;10.87;88.55;99079.84;5047928;27;103357;-56
2023/04/17 02:58:36;;;;;;;12.70;11.30;;;;;;;10.94;88.66;99074.06;5034116;27;103535;-56
2023/04/17 03:01:06;;;;;;;12.60;10.83;;;;;;;10.89;88.42;99081.44;5034029;27;102676;-56
2023/04/17 03:03:41;;;;;;;13.53;12.20;;;;;;;10.90;88.41;99077.88;5011389;27;103842;-56
2023/04/17 03:06:13;;;;;;;14.83;12.90;;;;;;;10.90;87.91;99079.66;5008501;27;105216;-56
2023/04/17 03:08:42;;;;;;;14.90;13.23;;;;;;;10.86;87.27;99081.66;5009812;27;103874;-56
2023/04/17 03:11:10;;;;;;;13.13;11.83;;;;;;;10.86;88.40;99080.84;5023916;27;103079;-56
2023/04/17 03:13:38;;;;;;;12.27;11.00;;;;;;;10.92;87.75;99078.59;5008333;27;102885;-57
2023/04/17 03:16:07;;;;;;;15.73;13.23;;;;;;;10.65;88.29;99074.31;5008863;27;103306;-56
2023/04/17 03:18:41;;;;;;;12.67;10.97;;;;;;;10.73;88.68;99080.78;5009601;27;103309;-56
2023/04/17 03:21:09;;;;;;;14.90;13.27;;;;;;;10.82;88.62;99085.47;5030775;27;102773;-56
2023/04/17 03:23:37;;;;;;;16.00;13.57;;;;;;;10.74;88.16;99079.00;5009232;27;102819;-56
2023/04/17 03:26:07;;;;;;;16.20;13.23;;;;;;;10.31;90.29;99078.34;5010374;27;103711;-56
2023/04/17 03:28:36;;;;;;;14.97;13.37;;;;;;;10.10;92.01;99074.44;5010538;27;107667;-56
2023/04/17 03:31:05;;;;;;;16.13;13.97;;;;;;;10.19;92.70;99079.16;5027282;27;102710;-56
2023/04/17 03:33:36;;;;;;;16.77;13.97;;;;;;;9.88;93.20;99075.78;5003836;27;102888;-57
2023/04/17 03:36:07;;;;;;;16.83;14.80;;;;;;;9.64;95.05;99082.63;5012014;27;103286;-56
2023/04/17 03:38:38;;;;;;;16.83;14.03;;;;;;;9.88;93.88;99081.06;4994701;27;103646;-56
2023/04/17 03:41:08;;;;;;;16.50;14.80;;;;;;;10.01;93.08;99082.94;5013228;27;102829;-56
2023/04/17 03:43:37;;;;;;;16.37;14.20;;;;;;;9.70;94.79;99087.50;5009373;27;102691;-56
2023/04/17 03:46:09;;;;;;;16.97;14.57;;;;;;;9.91;94.27;99087.94;5011441;27;103174;-62
2023/04/17 03:48:38;;;;;;;18.43;15.23;;;;;;;9.84;94.51;99095.41;5018210;27;105367;-62
2023/04/17 03:51:08;;;;;;;16.80;14.13;;;;;;;9.94;94.59;99084.28;5017438;27;102712;-62
2023/04/17 03:53:37;;;;;;;16.67;14.50;;;;;;;9.93;93.64;99093.13;5000376;27;102856;-62
2023/04/17 03:56:08;;;;;;;15.73;13.70;;;;;;;9.89;93.43;99082.78;5013609;27;103875;-62
2023/04/17 03:58:40;;;;;;;15.73;14.03;;;;;;;9.99;93.31;99084.81;5002872;27;103274;-64
2023/04/17 04:01:13;;;;;;;17.13;14.17;;;;;;;10.12;92.96;99091.00;5010192;27;102719;-61
2023/04/17 04:03:57;;;;;;;16.53;13.70;;;;;;;10.16;92.01;99095.19;5004642;27;103109;-61
2023/04/17 04:06:28;;;;;;;15.10;13.37;;;;;;;10.08;92.59;99089.50;5003981;27;105667;-61
2023/04/17 04:08:57;;;;;;;18.70;15.60;;;;;;;9.79;93.85;99089.59;4985832;27;105364;-61
2023/04/17 04:11:25;;;;;;;17.67;14.33;;;;;;;9.98;93.44;99094.53;5025493;27;102781;-61
2023/04/17 04:13:54;;;;;;;16.13;13.23;;;;;;;10.02;93.62;99093.38;5006497;27;102971;-61
2023/04/17 04:16:22;;;;;;;17.93;14.40;;;;;;;9.90;93.46;99102.94;5022901;27;104572;-61
2023/04/17 04:18:54;;;;;;;15.83;14.13;;;;;;;9.79;93.52;99108.06;5006983;27;104666;-61
2023/04/17 04:21:23;;;;;;;17.80;14.73;;;;;;;9.93;92.96;99108.97;5028060;27;102643;-61
2023/04/17 04:23:52;;;;;;;16.27;14.30;;;;;;;9.99;93.58;99108.59;5009051;27;102727;-61
2023/04/17 04:26:23;;;;;;;15.83;13.73;;;;;;;10.19;91.69;99110.84;5024105;27;103867;-62
2023/04/17 04:28:55;;;;;;;15.13;12.10;;;;;;;10.35;92.02;99106.25;5013787;27;103181;-60
2023/04/17 04:31:49;;;;;;;17.87;14.73;;;;;;;10.10;92.00;99106.13;5020435;27;103141;-60
2023/04/17 04:34:24;;;;;;;17.13;14.67;;;;;;;10.12;92.66;99104.22;5013304;27;103043;-60
2023/04/17 04:36:54;;;;;;;16.47;13.93;;;;;;;10.02;92.34;99113.69;5008740;27;103191;-60
2023/04/17 04:39:40;;;;;;;15.10;13.20;;;;;;;10.22;92.73;99110.63;5011643;27;104423;-60
2023/04/17 04:42:10;;;;;;;15.63;13.63;;;;;;;10.28;91.84;99111.06;5009590;27;102774;-60
2023/04/17 04:44:51;;;;;;;16.60;13.10;;;;;;;10.25;91.57;99118.34;5014389;27;102762;-60
2023/04/17 04:47:21;;;;;;;14.73;13.23;;;;;;;10.16;92.52;99111.03;5010336;27;103338;-60
2023/04/17 04:49:50;;;;;;;16.77;14.50;;;;;;;9.89;93.04;99117.06;5008748;27;103063;-60
2023/04/17 04:52:21;;;;;;;17.60;14.93;;;;;;;9.93;93.45;99115.09;5008126;27;102739;-60
2023/04/17 04:54:54;;;;;;;18.30;15.77;;;;;;;9.80;93.94;99115.00;5008241;27;102808;-60
2023/04/17 04:57:23;;;;;;;17.70;15.37;;;;;;;9.85;93.49;99118.19;5007969;27;104261;-60
2023/04/17 04:59:55;;;;;;;17.97;13.90;;;;;;;9.78;94.34;99121.31;5008056;27;103130;-60
2023/04/17 05:02:31;;;;;;;18.33;15.80;;;;;;;9.71;93.87;99120.03;5010165;27;102756;-60
2023/04/17 05:05:00;;;;;;;17.30;14.97;;;;;;;9.76;94.71;99121.44;5011509;27;104177;-60
2023/04/17 05:07:32;;;;;;;16.13;14.00;;;;;;;9.69;94.50;99122.75;5014302;27;103053;-60
2023/04/17 05:10:02;;;;;;;18.07;14.50;;;;;;;9.60;95.76;99131.22;5016195;27;103222;-60
2023/04/17 05:12:34;;;;;;;16.17;14.03;;;;;;;9.88;94.18;99125.94;4985812;27;102720;-60
2023/04/17 05:15:07;;;;;;;17.40;14.60;;;;;;;9.89;94.43;99125.00;5008127;27;102771;-60
2023/04/17 05:17:35;;;;;;;15.83;13.70;;;;;;;9.88;93.76;99123.28;5011223;27;104762;-60
2023/04/17 05:20:05;;;;;;;17.87;14.57;;;;;;;9.65;95.15;99130.97;5034781;27;104291;-60
2023/04/17 05:22:36;;;;;;;17.30;14.40;;;;;;;9.74;95.12;99125.13;5015624;27;102747;-60
2023/04/17 05:25:10;;;;;;;17.03;14.27;;;;;;;9.56;95.41;99129.72;5012830;27;102756;-60
2023/04/17 05:27:39;;;;;;;15.90;13.87;;;;;;;9.83;95.11;99132.44;5013565;27;103299;-60
2023/04/17 05:30:09;;;;;;;19.20;14.97;;;;;;;9.66;94.47;99122.09;5033257;27;103206;-60
2023/04/17 05:32:36;;;;;;;16.47;14.37;;;;;;;9.73;95.57;99124.25;5011752;27;102620;-60
2023/04/17 05:35:26;;;;;;;16.07;13.37;;;;;;;9.83;95.65;99124.53;5001126;27;102785;-60
2023/04/17 05:37:55;;;;;;;22.10;14.37;;;;;;;9.97;94.07;99129.78;5018534;27;103283;-60
2023/04/17 05:40:25;;;;;;;14.87;12.47;;;;;;;9.96;94.53;99135.19;5011472;27;103171;-60
2023/04/17 05:42:53;;;;;;;16.80;14.40;;;;;;;10.06;92.78;99131.84;5017681;27;102619;-60
2023/04/17 05:45:21;;;;;;;15.87;12.97;;;;;;;9.94;94.34;99139.72;5013405;27;102630;-60
2023/04/17 05:47:52;;;;;;;16.47;13.17;;;;;;;9.89;95.17;99135.56;5011176;27;103506;-60
2023/04/17 05:50:20;;;;;;;17.43;14.33;;;;;;;9.86;94.62;99140.16;5010012;27;104257;-60
2023/04/17 05:52:49;;;;;;;17.17;14.23;;;;;;;9.93;95.62;99140.63;5034588;27;102749;-60
2023/04/17 05:55:18;;;;;;;17.37;14.63;;;;;;;9.87;94.87;99142.72;5016536;27;102795;-60
2023/04/17 05:57:52;;;;;;;15.17;13.30;;;;;;;9.98;95.16;99139.41;5014195;27;104482;-60
2023/04/17 06:00:22;;;;;;;17.80;13.93;;;;;;;10.03;95.80;99142.59;4999928;27;105406;-60
2023/04/17 06:02:55;;;;;;;17.43;14.63;;;;;;;9.62;96.46;99142.56;5009642;27;102718;-60
2023/04/17 06:05:42;;;;;;;16.50;13.87;;;;;;;9.78;97.23;99147.72;5007558;27;102674;-60
2023/04/17 06:08:10;;;;;;;18.00;13.93;;;;;;;9.83;96.72;99143.84;5013346;27;103188;-60
2023/04/17 06:10:37;;;;;;;15.83;14.13;;;;;;;9.60;97.05;99143.59;5011899;27;104452;-60
2023/04/17 06:13:07;;;;;;;16.63;14.10;;;;;;;9.61;98.24;99140.00;5016332;27;102700;-60
2023/04/17 06:15:36;;;;;;;17.07;14.27;;;;;;;9.67;97.46;99145.75;5011760;27;102723;-60
2023/04/17 06:18:04;;;;;;;16.57;13.50;;;;;;;9.84;96.04;99144.69;5031258;27;103433;-60
2023/04/17 06:20:32;;;;;;;16.57;14.63;;;;;;;9.94;96.24;99147.63;5012548;27;103286;-60
2023/04/17 06:23:02;;;;;;;19.80;15.60;;;;;;;9.68;97.06;99151.88;5014216;27;102963;-60
2023/04/17 06:25:30;;;;;;;16.53;14.53;;;;;;;9.85;97.24;99159.59;5017346;27;104258;-60
2023/04/17 06:27:58;;;;;;;16.47;13.10;;;;;;;10.06;95.99;99152.13;5016245;27;109571;-60
2023/04/17 06:30:27;;;;;;;16.67;13.97;;;;;;;10.07;96.03;99154.69;5015639;27;103186;-60
2023/04/17 06:32:57;;;;;;;16.97;14.30;;;;;;;9.94;96.37;99155.53;5012990;27;102935;-60
2023/04/17 06:35:25;;;;;;;20.97;14.53;;;;;;;9.92;96.14;99155.63;5015402;27;103352;-60
2023/04/17 06:37:59;;;;;;;17.77;14.17;;;;;;;9.68;97.55;99160.66;5006713;27;103427;-60
2023/04/17 06:40:27;;;;;;;17.27;14.70;;;;;;;9.74;97.32;99160.25;5016590;27;103554;-60
2023/04/17 06:42:55;;;;;;;16.93;15.13;;;;;;;10.12;96.55;99159.66;5012611;27;102777;-60
2023/04/17 06:45:29;;;;;;;18.00;15.10;;;;;;;9.97;95.96;99157.97;5034430;27;102716;-60
2023/04/17 06:47:57;;;;;;;16.90;13.67;;;;;;;10.09;96.55;99157.19;5037187;27;103961;-60
2023/04/17 06:50:25;;;;;;;15.40;13.77;;;;;;;9.97;96.70;99160.59;5012863;27;104460;-60
2023/04/17 06:52:53;;;;;;;18.50;14.27;;;;;;;9.83;98.18;99169.38;5027731;27;102658;-60
2023/04/17 06:55:21;;;;;;;17.07;14.40;;;;;;;9.72;99.08;99162.13;5039282;27;102600;-60
2023/04/17 06:57:49;;;;;;;18.57;13.97;;;;;;;10.15;96.71;99162.13;5032495;27;103417;-60
2023/04/17 07:00:18;;;;;;;15.57;12.77;;;;;;;10.15;96.16;99170.06;5030001;27;104366;-60
2023/04/17 07:02:47;;;;;;;15.97;13.60;;;;;;;9.77;97.78;99160.06;5024937;27;102810;-60
2023/04/17 07:05:16;;;;;;;16.27;13.33;;;;;;;9.86;97.11;99156.84;5027093;27;102863;-60
2023/04/17 07:07:44;;;;;;;17.57;13.13;;;;;;;9.50;99.81;99169.66;5026935;27;104447;-60
2023/04/17 07:10:14;;;;;;;14.27;12.77;;;;;;;9.87;98.20;99169.13;5034096;27;104286;-60
2023/04/17 07:12:42;;;;;;;14.70;11.97;;;;;;;10.15;97.45;99172.69;5013684;27;103275;-60
2023/04/17 07:15:11;;;;;;;16.47;12.97;;;;;;;9.96;96.73;99172.97;5030692;27;103065;-60
2023/04/17 07:17:39;;;;;;;15.03;12.80;;;;;;;9.86;97.96;99177.97;5028331;27;103333;-60
2023/04/17 07:20:09;;;;;;;17.20;13.27;;;;;;;9.72;98.83;99182.38;5029331;27;103261;-60
2023/04/17 07:22:37;;;;;;;15.27;13.47;;;;;;;10.10;97.46;99180.88;5012891;27;102731;-60
2023/04/17 07:25:07;;;;;;;16.53;12.73;;;;;;;9.65;99.08;99178.44;5030868;27;103278;-60
2023/04/17 07:27:37;;;;;;;14.33;12.40;;;;;;;10.01;99.10;99176.19;5029711;27;103181;-60
2023/04/17 07:30:07;;;;;;;15.50;13.80;;;;;;;9.86;98.71;99183.25;5031229;27;103112;-60
2023/04/17 07:32:36;;;;;;;15.97;13.17;;;;;;;9.96;98.93;99180.03;5028780;27;102558;-60
2023/04/17 07:35:05;;;;;;;15.27;12.10;;;;;;;10.23;98.07;99180.97;5029910;27;102763;-60
2023/04/17 07:37:35;;;;;;;15.53;13.93;;;;;;;10.37;97.13;99184.44;5034479;27;104484;-60
2023/04/17 07:40:09;;;;;;;16.20;13.30;;;;;;;10.08;97.54;99179.25;5034788;27;109995;-60
2023/04/17 07:42:37;;;;;;;16.97;12.80;;;;;;;10.39;96.98;99181.69;5029827;27;102725;-60
2023/04/17 07:45:06;;;;;;;14.40;11.87;;;;;;;10.44;97.04;99185.72;5016161;27;102683;-60
2023/04/17 07:47:34;;;;;;;15.20;11.53;;;;;;;10.91;95.74;99187.94;5035293;27;104204;-60
2023/04/17 07:50:02;;;;;;;14.47;12.27;;;;;;;10.41;95.13;99190.38;5036345;27;103081;-60
2023/04/17 07:52:30;;;;;;;13.30;11.83;;;;;;;10.51;96.30;99186.19;5007728;27;102710;-60
2023/04/17 07:55:00;;;;;;;13.47;11.40;;;;;;;10.35;97.47;99190.78;5030886;27;102682;-61
2023/04/17 07:57:29;;;;;;;13.17;11.13;;;;;;;10.39;98.24;99190.47;5012916;27;103672;-61
2023/04/17 07:59:56;;;;;;;14.43;12.47;;;;;;;10.51;95.95;99196.75;5035550;27;103171;-60
2023/04/17 08:02:25;;;;;;;15.03;12.37;;;;;;;10.88;94.11;99196.09;5015267;27;102971;-60
2023/04/17 08:04:54;;;;;;;13.07;10.57;;;;;;;11.22;93.55;99191.19;5030046;27;102677;-61
2023/04/17 08:07:25;;;;;;;11.60;10.40;;;;;;;10.62;94.02;99194.28;5030240;27;103348;-61
2023/04/17 08:09:54;;;;;;;12.97;10.93;;;;;;;11.18;93.25;99189.69;5024967;27;103209;-61
2023/04/17 08:12:23;;;;;;;12.37;10.60;;;;;;;11.48;91.99;99196.41;5004812;27;103019;-61
2023/04/17 08:14:51;;;;;;;12.63;10.20;;;;;;;10.94;92.94;99200.13;5033115;27;102672;-61
2023/04/17 08:17:21;;;;;;;12.13;10.03;;;;;;;11.06;93.14;99202.78;5010165;27;104434;-60
2023/04/17 08:19:52;;;;;;;12.10;9.70;;;;;;;10.86;93.15;99197.94;5026423;27;103305;-61
2023/04/17 08:22:22;;;;;;;12.77;10.77;;;;;;;11.16;91.96;99195.09;5036846;27;102855;-61
2023/04/17 08:24:53;;;;;;;11.60;9.27;;;;;;;11.34;91.64;99198.31;5033749;27;102601;-61
2023/04/17 08:27:23;;;;;;;11.37;9.17;;;;;;;11.00;93.21;99205.81;5011138;27;104670;-61
2023/04/17 08:29:54;;;;;;;11.07;9.90;;;;;;;11.15;91.65;99203.13;5034287;27;104266;-61
2023/04/17 08:32:23;;;;;;;12.57;9.27;;;;;;;11.31;90.94;99209.09;5007449;27;102712;-61
2023/04/17 08:34:51;;;;;;;10.37;8.90;;;;;;;11.34;90.33;99201.78;5037313;27;103064;-61
2023/04/17 08:37:19;;;;;;;10.57;9.20;;;;;;;10.86;91.87;99202.41;5026655;27;104854;-61
2023/04/17 08:39:51;;;;;;;9.10;8.20;;;;;;;10.66;92.59;99211.66;5017836;27;103433;-61
2023/04/17 08:42:19;;;;;;;11.53;8.80;;;;;;;10.62;93.23;99214.56;5011988;27;103526;-61
2023/04/17 08:44:50;;;;;;;9.97;8.70;;;;;;;11.00;92.06;99216.41;5025472;27;102944;-61
2023/04/17 08:47:18;;;;;;;10.07;9.07;;;;;;;10.69;93.64;99219.38;5014436;27;103257;-61
2023/04/17 08:49:49;;;;;;;10.03;8.63;;;;;;;11.24;91.86;99216.59;5035779;27;106749;-61
2023/04/17 08:52:17;;;;;;;10.17;8.03;;;;;;;11.12;91.51;99217.41;5034337;27;102568;-61
2023/04/17 08:54:46;;;;;;;8.80;7.93;;;;;;;11.23;91.57;99217.53;5034144;27;104172;-61
2023/04/17 08:57:17;;;;;;;9.23;8.10;;;;;;;11.25;92.15;99215.66;5035399;27;103353;-61
2023/04/17 08:59:46;;;;;;;9.67;8.30;;;;;;;11.29;91.20;99216.28;5030612;27;103227;-61
2023/04/17 09:02:16;;;;;;;8.00;7.20;;;;;;;10.84;91.92;99218.38;5036383;27;102755;-60
2023/04/17 09:04:45;;;;;;;6.83;6.13;;;;;;;10.95;93.92;99223.78;5014997;27;102788;-60
2023/04/17 09:07:15;;;;;;;7.33;6.63;;;;;;;10.59;93.16;99223.53;5034673;27;105005;-60
2023/04/17 09:09:50;;;;;;;7.07;6.40;;;;;;;10.45;95.51;99220.94;5004481;27;104447;-60
2023/04/17 09:12:20;;;;;;;8.57;6.70;;;;;;;10.88;93.18;99221.66;5012007;27;102832;-60
2023/04/17 09:14:49;;;;;;;7.83;6.60;;;;;;;11.10;94.16;99219.31;5016580;27;102712;-60
2023/04/17 09:17:20;;;;;;;7.10;6.40;;;;;;;10.79;93.92;99217.81;5038709;27;103739;-60
2023/04/17 09:20:05;;;;;;;7.33;6.60;;;;;;;10.96;92.80;99217.56;5017908;27;104179;-60
2023/04/17 09:22:34;;;;;;;6.77;6.07;;;;;;;11.40;92.28;99219.03;5032144;27;102852;-60
2023/04/17 09:25:03;;;;;;;6.73;6.13;;;;;;;11.99;90.64;99217.63;5033499;27;103472;-61
2023/04/17 09:27:31;;;;;;;6.50;5.80;;;;;;;11.38;89.87;99224.44;5011585;27;103386;-60
2023/04/17 09:30:01;;;;;;;6.27;5.60;;;;;;;11.60;90.00;99222.03;5032685;27;103137;-60
2023/04/17 09:32:32;;;;;;;6.20;5.17;;;;;;;11.64;89.19;99218.25;5035769;27;102761;-60
2023/04/17 09:35:02;;;;;;;6.23;5.63;;;;;;;11.59;88.21;99227.44;5032686;27;102760;-60
2023/04/17 09:37:48;;;;;;;7.23;5.90;;;;;;;11.37;89.34;99220.09;5030717;27;103667;-60
2023/04/17 09:40:18;;;;;;;6.30;5.70;;;;;;;11.18;87.88;99234.66;5031932;27;107033;-60
2023/04/17 09:42:59;;;;;;;6.73;5.70;;;;;;;11.09;88.67;99230.81;5033271;27;102715;-60
2023/04/17 09:45:32;;;;;;;6.83;6.10;;;;;;;11.28;87.85;99228.66;5016107;27;103123;-60
2023/04/17 09:48:04;;;;;;;6.57;5.23;;;;;;;11.50;88.79;99228.91;5012805;27;104645;-60
2023/04/17 09:50:34;;;;;;;6.33;5.10;;;;;;;11.05;88.03;99232.84;5034201;27;103934;-60
2023/04/17 09:53:05;;;;;;;6.50;5.90;;;;;;;11.39;88.60;99233.25;5034441;27;102752;-60
2023/04/17 09:55:36;;;;;;;6.20;5.60;;;;;;;11.35;87.94;99232.59;5030945;27;102807;-60
2023/04/17 09:58:07;;;;;;;6.50;5.90;;;;;;;11.01;89.06;99230.47;5035318;27;103831;-60
2023/04/17 10:00:36;;;;;;;6.20;5.50;;;;;;;11.17;88.10;99233.78;5032110;27;103149;-60
2023/04/17 10:03:07;;;;;;;6.30;5.70;;;;;;;11.91;86.51;99231.41;5031250;27;102758;-60
2023/04/17 10:05:35;;;;;;;7.63;6.27;;;;;;;11.94;86.03;99235.63;5012995;27;103160;-60
2023/04/17 10:08:04;;;;;;;6.77;6.03;;;;;;;12.38;84.51;99220.09;5016036;27;103376;-60
2023/04/17 10:10:35;;;;;;;6.47;5.83;;;;;;;12.73;84.97;99220.22;5036711;27;103115;-61
2023/04/17 10:13:06;;;;;;;5.87;5.27;;;;;;;12.94;81.92;99215.97;5028722;27;103833;-60
2023/04/17 10:15:38;;;;;;;5.90;5.30;;;;;;;13.07;82.62;99218.59;5032907;27;102735;-60
2023/04/17 10:18:21;;;;;;;5.20;4.70;;;;;;;13.93;79.44;99209.31;5029430;27;103445;-60
2023/04/17 10:20:52;;;;;;;5.57;4.70;;;;;;;13.58;81.54;99213.84;5011051;27;109365;-60
2023/04/17 10:23:34;;;;;;;6.17;5.13;;;;;;;13.31;81.19;99201.69;5014380;27;102764;-60
2023/04/17 10:26:41;;;;;;;5.50;4.97;;;;;;;14.37;76.26;99208.50;5033372;27;102724;-61
2023/04/17 10:29:11;;;;;;;6.23;5.60;;;;;;;13.47;78.15;99205.88;5028535;27;104442;-60
2023/04/17 10:32:27;;;;;;;5.33;4.83;;;;;;;13.27;77.87;99200.25;5033816;27;103906;-60
2023/04/17 10:34:59;;;;;;;5.73;4.80;;;;;;;13.62;76.40;99192.25;5027523;27;102709;-60
2023/04/17 10:38:02;;;;;;;5.03;4.53;;;;;;;13.71;77.27;99194.19;5027000;27;102674;-61
2023/04/17 10:40:32;;;;;;;5.50;4.40;;;;;;;13.90;77.80;99189.16;5026418;27;103293;-60
2023/04/17 10:43:07;;;;;;;5.50;5.00;;;;;;;13.41;76.78;99195.72;5033896;27;103065;-60
2023/04/17 10:45:56;;;;;;;6.57;4.87;;;;;;;14.32;75.63;99184.09;5004823;27;102855;-60
2023/04/17 10:48:31;;;;;;;5.63;5.13;;;;;;;13.72;73.60;99193.25;4995920;27;102854;-61
2023/04/17 10:51:42;;;;;;;6.53;5.93;;;;;;;14.56;73.59;99181.28;5008775;27;103409;-60
2023/04/17 10:54:14;;;;;;;5.00;4.50;;;;;;;13.86;76.12;99182.41;5017059;27;103430;-60
2023/04/17 10:56:47;;;;;;;4.70;4.30;;;;;;;13.66;77.31;99184.91;5027625;27;103008;-60
2023/04/17 10:59:17;;;;;;;5.47;4.97;;;;;;;14.66;73.01;99177.75;5009393;27;102700;-60
2023/04/17 11:01:59;;;;;;;5.73;4.67;;;;;;;15.25;73.22;99175.47;5033943;27;103920;-60
2023/04/17 11:04:29;;;;;;;5.77;5.20;;;;;;;14.62;73.15;99176.31;5028436;27;103184;-61
2023/04/17 11:07:00;;;;;;;5.60;5.10;;;;;;;13.37;75.50;99173.84;5034321;27;102839;-61
2023/04/17 11:09:33;;;;;;;5.13;4.63;;;;;;;13.65;74.74;99177.88;5024581;27;103287;-61
2023/04/17 11:12:17;;;;;;;4.80;4.30;;;;;;;14.45;73.90;99167.06;5011194;27;103748;-60
2023/04/17 11:15:08;;;;;;;5.10;4.60;;;;;;;14.63;72.48;99166.50;5017273;27;105564;-59
2023/04/17 11:17:46;;;;;;;6.13;5.03;;;;;;;14.71;71.68;99164.09;5028442;27;102670;-60
2023/04/17 11:20:30;;;;;;;5.80;5.23;;;;;;;14.20;75.18;99169.13;5015306;27;102816;-60
2023/04/17 11:23:03;;;;;;;8.03;5.57;;;;;;;13.89;74.09;99168.03;5027612;27;103358;-59
2023/04/17 11:25:37;;;;;;;6.03;5.43;;;;;;;13.77;74.62;99163.66;5010232;27;103334;-59
2023/04/17 11:28:06;;;;;;;5.73;5.23;;;;;;;14.09;73.80;99169.94;5028301;27;102704;-60
2023/04/17 11:30:39;;;;;;;5.23;4.73;;;;;;;14.31;74.66;99167.28;5013652;27;102826;-60
2023/04/17 11:33:08;;;;;;;6.40;5.30;;;;;;;13.89;75.66;99168.03;5027870;27;104479;-60